Time;durP1;ratioP1;P1;durP2;ratioP2;P2;SDS_P1;SDS_P2;PMS_P1;PMS_P2;Temp;Humidity;BMP_temperature;BMP_pressure;BME280_temperature;BME280_humidity;BME280_pressure;Samples;Min_cycle;Max_cycle;Signal;HPM_P1;HPM_P2
2023/06/11 00:00:27;;;;;;;11.90;9.57;;;;;;;22.03;55.60;101391.16;5081211;28;20111;-69
2023/06/11 00:02:54;;;;;;;10.43;9.32;;;;;;;21.92;56.88;101384.72;5088505;28;20056;-69
2023/06/11 00:05:24;;;;;;;10.60;9.07;;;;;;;21.94;57.15;101381.94;5081044;28;20094;-69
2023/06/11 00:07:50;;;;;;;10.68;9.68;;;;;;;21.84;57.38;101373.72;5088443;28;20098;-69
2023/06/11 00:10:16;;;;;;;12.55;9.43;;;;;;;21.79;57.46;101372.31;5081524;28;20048;-69
2023/06/11 00:12:41;;;;;;;11.20;9.20;;;;;;;21.86;57.30;101379.78;5087641;28;20463;-69
2023/06/11 00:15:07;;;;;;;12.90;10.48;;;;;;;21.77;56.55;101380.34;5081481;28;20029;-69
2023/06/11 00:17:33;;;;;;;10.73;9.38;;;;;;;21.71;57.84;101378.94;5086862;28;20043;-68
2023/06/11 00:20:03;;;;;;;12.30;10.00;;;;;;;21.66;58.41;101374.88;5082410;28;20059;-69
2023/06/11 00:22:31;;;;;;;11.75;9.88;;;;;;;21.63;59.01;101373.25;5079047;28;20051;-69
2023/06/11 00:24:57;;;;;;;13.68;9.98;;;;;;;21.56;58.98;101379.03;5084045;28;20067;-69
2023/06/11 00:27:22;;;;;;;11.07;9.98;;;;;;;21.55;59.30;101378.19;5083053;28;20067;-68
2023/06/11 00:29:48;;;;;;;13.05;10.00;;;;;;;21.55;60.17;101377.31;5084053;28;20441;-69
2023/06/11 00:32:13;;;;;;;11.82;9.90;;;;;;;21.46;60.35;101365.47;5080226;28;20043;-69
2023/06/11 00:34:38;;;;;;;11.50;10.25;;;;;;;21.44;59.89;101370.00;5080086;28;20103;-69
2023/06/11 00:37:04;;;;;;;11.20;9.88;;;;;;;21.42;59.88;101369.28;5086676;28;20119;-69
2023/06/11 00:39:29;;;;;;;11.02;9.82;;;;;;;21.35;60.01;101371.41;5080980;28;20028;-69
2023/06/11 00:41:57;;;;;;;12.00;9.88;;;;;;;21.24;60.12;101358.78;5072550;28;20033;-69
2023/06/11 00:44:22;;;;;;;12.65;10.32;;;;;;;21.27;60.96;101366.53;5081966;28;20475;-69
2023/06/11 00:46:51;;;;;;;12.57;10.30;;;;;;;21.27;61.12;101371.00;5082565;28;20027;-69
2023/06/11 00:49:17;;;;;;;11.43;10.25;;;;;;;21.18;61.24;101376.84;5083617;28;20454;-69
2023/06/11 00:51:47;;;;;;;10.73;9.55;;;;;;;21.20;61.55;101369.66;5081554;28;20039;-69
2023/06/11 00:54:16;;;;;;;14.32;10.57;;;;;;;21.13;61.75;101374.47;5084047;28;20031;-68
2023/06/11 00:56:45;;;;;;;13.95;10.18;;;;;;;21.10;61.40;101373.81;5080907;28;20065;-69
2023/06/11 00:59:15;;;;;;;14.80;10.32;;;;;;;21.04;61.69;101369.72;5077024;28;20016;-69
2023/06/11 01:01:45;;;;;;;14.63;10.73;;;;;;;21.02;62.71;101376.88;5067289;28;20500;-69
2023/06/11 01:04:17;;;;;;;12.00;10.80;;;;;;;21.00;62.81;101362.91;5080144;28;20375;-69
2023/06/11 01:06:49;;;;;;;12.02;9.95;;;;;;;20.81;62.40;101358.66;5082591;28;20028;-69
2023/06/11 01:09:20;;;;;;;13.30;10.32;;;;;;;20.95;62.87;101378.19;5082127;28;20032;-69
2023/06/11 01:11:48;;;;;;;11.52;10.32;;;;;;;20.92;63.11;101373.94;5080599;28;20111;-69
2023/06/11 01:14:16;;;;;;;11.35;10.00;;;;;;;20.90;63.29;101370.53;5086205;28;20044;-68
2023/06/11 01:17:02;;;;;;;13.85;10.70;;;;;;;20.87;63.41;101376.00;5073152;28;20392;-68
2023/06/11 01:20:09;;;;;;;12.02;10.23;;;;;;;20.86;62.77;101379.59;5075631;28;20029;-68
2023/06/11 01:22:56;;;;;;;17.88;11.07;;;;;;;20.80;63.47;101378.16;5072475;28;20487;-69
2023/06/11 01:25:37;;;;;;;12.43;11.10;;;;;;;20.73;64.15;101375.94;5072079;28;20028;-68
2023/06/11 01:28:10;;;;;;;13.25;11.25;;;;;;;20.72;65.22;101379.53;5081325;28;20044;-69
2023/06/11 01:30:39;;;;;;;12.13;10.93;;;;;;;20.70;66.21;101373.47;5083084;28;20110;-68
2023/06/11 01:33:05;;;;;;;11.88;10.68;;;;;;;20.66;65.63;101371.94;5081640;28;20035;-69
2023/06/11 01:35:33;;;;;;;16.65;11.07;;;;;;;20.61;65.33;101377.50;5083681;28;20025;-69
2023/06/11 01:37:59;;;;;;;16.00;11.15;;;;;;;20.54;65.88;101369.06;5082834;28;20380;-68
2023/06/11 01:40:26;;;;;;;13.85;11.07;;;;;;;20.45;65.87;101377.50;5083076;28;20055;-69
2023/06/11 01:42:53;;;;;;;13.80;10.95;;;;;;;20.50;67.29;101382.50;5081310;28;20421;-69
2023/06/11 01:45:21;;;;;;;14.18;11.32;;;;;;;20.51;67.26;101376.31;5082145;28;20108;-69
2023/06/11 01:47:50;;;;;;;12.57;11.27;;;;;;;20.44;67.26;101380.25;5083339;28;20020;-69
2023/06/11 01:50:17;;;;;;;14.45;11.50;;;;;;;20.38;67.61;101380.56;5083630;28;20463;-68
2023/06/11 01:52:42;;;;;;;17.40;11.00;;;;;;;20.34;67.37;101386.03;5084332;28;20157;-69
2023/06/11 01:55:08;;;;;;;14.75;11.88;;;;;;;20.31;68.23;101380.91;5090005;28;20120;-69
2023/06/11 01:57:34;;;;;;;16.23;12.00;;;;;;;20.25;67.77;101381.25;5085054;28;20098;-68
2023/06/11 02:00:00;;;;;;;12.80;11.45;;;;;;;20.27;68.56;101383.78;5090885;28;20029;-69
2023/06/11 02:02:28;;;;;;;14.07;11.45;;;;;;;20.23;68.93;101393.72;5083964;28;20031;-69
2023/06/11 02:04:54;;;;;;;16.65;12.18;;;;;;;20.20;69.75;101385.94;5085511;28;20029;-69
2023/06/11 02:07:19;;;;;;;14.23;12.20;;;;;;;20.19;70.31;101391.31;5085102;28;20040;-68
2023/06/11 02:09:45;;;;;;;13.98;11.95;;;;;;;20.15;69.94;101392.44;5081547;28;20032;-69
2023/06/11 02:12:10;;;;;;;16.90;12.30;;;;;;;20.13;70.62;101389.88;5089525;28;20032;-69
2023/06/11 02:14:36;;;;;;;15.40;11.77;;;;;;;20.03;69.84;101384.22;5083506;28;20494;-69
2023/06/11 02:17:01;;;;;;;15.55;12.52;;;;;;;19.97;70.34;101391.63;5090452;28;20034;-68
2023/06/11 02:19:27;;;;;;;16.80;12.88;;;;;;;19.97;70.03;101387.19;5082950;28;20033;-69
2023/06/11 02:21:52;;;;;;;14.45;12.80;;;;;;;19.97;70.50;101394.28;5090728;28;20056;-68
2023/06/11 02:24:17;;;;;;;13.68;12.18;;;;;;;19.90;70.33;101391.13;5083246;28;20569;-69
2023/06/11 02:26:42;;;;;;;14.25;12.70;;;;;;;19.91;71.55;101387.53;5087943;28;20031;-70
2023/06/11 02:29:08;;;;;;;14.60;12.95;;;;;;;19.86;70.76;101387.78;5085417;28;20032;-68
2023/06/11 02:31:33;;;;;;;14.77;13.27;;;;;;;19.86;70.57;101385.13;5086608;28;20068;-69
2023/06/11 02:33:58;;;;;;;15.00;12.85;;;;;;;19.88;71.42;101388.56;5085462;28;20066;-68
2023/06/11 02:36:23;;;;;;;14.77;13.27;;;;;;;19.86;72.36;101394.88;5085458;28;20089;-69
2023/06/11 02:38:49;;;;;;;15.32;12.95;;;;;;;19.82;71.94;101394.19;5086062;28;20043;-69
2023/06/11 02:41:15;;;;;;;15.15;13.60;;;;;;;19.78;71.79;101390.00;5084779;28;20032;-69
2023/06/11 02:43:41;;;;;;;14.73;13.18;;;;;;;19.75;72.10;101389.28;5077016;28;20089;-68
2023/06/11 02:46:06;;;;;;;16.08;13.40;;;;;;;19.71;72.66;101390.38;5086661;28;20466;-69
2023/06/11 02:48:31;;;;;;;15.35;13.75;;;;;;;19.71;72.75;101393.03;5084916;28;20025;-69
2023/06/11 02:50:57;;;;;;;15.45;13.80;;;;;;;19.64;73.31;101389.84;5085768;28;20036;-68
2023/06/11 02:53:22;;;;;;;15.10;13.57;;;;;;;19.61;73.38;101382.91;5085823;28;20020;-68
2023/06/11 02:55:47;;;;;;;15.82;14.32;;;;;;;19.63;75.04;101388.13;5084533;28;20032;-69
2023/06/11 02:58:13;;;;;;;14.95;12.70;;;;;;;19.59;72.87;101397.16;5088400;28;20028;-68
2023/06/11 03:00:38;;;;;;;14.55;13.10;;;;;;;19.52;73.91;101395.75;5083143;28;20036;-69
2023/06/11 03:03:03;;;;;;;15.10;13.55;;;;;;;19.51;74.24;101391.41;5088652;28;20024;-69
2023/06/11 03:05:29;;;;;;;15.40;13.50;;;;;;;19.47;75.00;101397.78;5082722;28;20043;-69
2023/06/11 03:07:54;;;;;;;18.30;14.48;;;;;;;19.43;75.06;101397.09;5083851;28;20091;-69
2023/06/11 03:10:19;;;;;;;16.13;13.90;;;;;;;19.38;75.88;101391.19;5084900;28;20020;-69
2023/06/11 03:12:45;;;;;;;15.90;14.30;;;;;;;19.35;75.34;101394.81;5084078;28;20048;-69
2023/06/11 03:15:10;;;;;;;15.38;13.82;;;;;;;19.32;74.76;101386.19;5085251;28;20463;-69
2023/06/11 03:17:35;;;;;;;18.92;14.32;;;;;;;19.29;75.58;101394.28;5085970;28;20043;-68
2023/06/11 03:20:00;;;;;;;17.15;13.75;;;;;;;19.19;75.58;101383.31;5083664;28;20032;-68
2023/06/11 03:22:26;;;;;;;15.73;13.90;;;;;;;19.27;76.38;101391.75;5087391;28;20035;-68
2023/06/11 03:24:51;;;;;;;15.60;13.88;;;;;;;19.16;75.44;101389.66;5082216;28;20524;-68
2023/06/11 03:27:16;;;;;;;18.60;14.70;;;;;;;19.18;77.40;101393.06;5089475;28;20044;-69
2023/06/11 03:29:42;;;;;;;17.35;14.48;;;;;;;19.09;75.85;101387.38;5080987;28;20456;-69
2023/06/11 03:32:07;;;;;;;16.15;14.45;;;;;;;19.06;76.30;101398.94;5089654;28;20124;-68
2023/06/11 03:34:32;;;;;;;16.50;14.38;;;;;;;19.08;76.54;101407.66;5081986;28;20020;-69
2023/06/11 03:36:58;;;;;;;17.65;15.30;;;;;;;19.08;76.98;101404.16;5087447;28;20054;-68
2023/06/11 03:39:23;;;;;;;17.60;14.60;;;;;;;19.03;77.35;101392.97;5083836;28;20383;-68
2023/06/11 03:41:48;;;;;;;18.73;15.00;;;;;;;19.01;77.25;101403.63;5079100;28;20060;-68
2023/06/11 03:44:14;;;;;;;17.65;14.68;;;;;;;19.00;77.86;101404.56;5082635;28;20098;-69
2023/06/11 03:46:39;;;;;;;16.00;14.38;;;;;;;19.01;77.32;101405.41;5084138;28;20020;-68
2023/06/11 03:49:04;;;;;;;16.90;15.23;;;;;;;19.02;77.35;101415.03;5085097;28;20020;-69
2023/06/11 03:51:30;;;;;;;17.25;15.32;;;;;;;19.00;77.70;101408.97;5083638;28;20468;-68
2023/06/11 03:53:55;;;;;;;17.67;15.77;;;;;;;19.04;78.11;101394.69;5084632;28;20024;-69
2023/06/11 03:56:20;;;;;;;18.95;15.63;;;;;;;19.05;79.00;101406.97;5085306;28;20016;-69
2023/06/11 03:58:46;;;;;;;16.92;15.05;;;;;;;19.00;78.31;101404.56;5083562;28;20026;-69
2023/06/11 04:01:11;;;;;;;18.55;15.50;;;;;;;19.05;78.83;101402.53;5085134;28;20020;-69
2023/06/11 04:03:36;;;;;;;18.90;14.98;;;;;;;19.01;78.34;101410.69;5084488;28;20048;-69
2023/06/11 04:06:02;;;;;;;18.77;16.02;;;;;;;19.04;79.92;101413.19;5083755;28;20024;-68
2023/06/11 04:08:27;;;;;;;17.95;16.17;;;;;;;19.01;78.31;101416.84;5083807;28;20031;-68
2023/06/11 04:10:52;;;;;;;17.17;15.57;;;;;;;19.06;79.07;101413.94;5082604;28;20032;-68
2023/06/11 04:13:18;;;;;;;22.02;15.65;;;;;;;19.09;79.94;101419.09;5083909;28;20390;-69
2023/06/11 04:15:43;;;;;;;17.20;15.60;;;;;;;19.14;79.22;101412.66;5082830;28;20028;-69
2023/06/11 04:18:10;;;;;;;19.17;16.27;;;;;;;19.14;79.90;101412.66;5083911;28;20028;-69
2023/06/11 04:20:36;;;;;;;17.45;15.65;;;;;;;19.17;78.59;101409.00;5083513;28;20452;-68
2023/06/11 04:23:01;;;;;;;18.20;16.40;;;;;;;19.16;78.39;101405.50;5082915;28;20031;-68
2023/06/11 04:25:26;;;;;;;20.52;17.08;;;;;;;19.20;78.06;101416.78;5083570;28;20032;-68
2023/06/11 04:27:52;;;;;;;19.55;16.23;;;;;;;19.23;78.60;101411.34;5083941;28;20048;-68
2023/06/11 04:30:18;;;;;;;19.20;16.80;;;;;;;19.27;78.50;101412.88;5083692;28;20020;-69
2023/06/11 04:32:44;;;;;;;17.77;16.05;;;;;;;19.20;78.81;101400.06;5085125;28;20029;-68
2023/06/11 04:35:10;;;;;;;18.02;16.00;;;;;;;19.33;78.84;101417.88;5081115;28;20020;-69
2023/06/11 04:37:40;;;;;;;19.25;16.33;;;;;;;19.33;78.02;101412.56;5088026;28;20032;-68
2023/06/11 04:40:10;;;;;;;18.92;16.35;;;;;;;19.38;77.55;101418.47;5080259;28;20024;-69
2023/06/11 04:42:38;;;;;;;17.17;15.38;;;;;;;19.44;78.16;101416.44;5078707;28;20028;-69
2023/06/11 04:45:04;;;;;;;19.17;16.83;;;;;;;19.49;77.21;101417.94;5082589;28;20030;-68
2023/06/11 04:47:32;;;;;;;20.27;17.35;;;;;;;19.49;77.69;101417.06;5088166;28;20061;-68
2023/06/11 04:50:02;;;;;;;17.95;16.05;;;;;;;19.49;76.82;101412.66;5080420;28;20541;-69
2023/06/11 04:52:31;;;;;;;19.70;16.10;;;;;;;19.64;77.34;101416.31;5088896;28;20031;-69
2023/06/11 04:54:56;;;;;;;18.67;16.80;;;;;;;19.64;77.31;101416.31;5079796;28;20035;-69
2023/06/11 04:57:23;;;;;;;19.95;17.88;;;;;;;19.66;75.88;101418.88;5088146;28;20016;-69
2023/06/11 04:59:50;;;;;;;19.90;17.58;;;;;;;19.71;77.12;101412.41;5080813;28;20054;-69
2023/06/11 05:02:16;;;;;;;23.33;18.00;;;;;;;19.75;76.04;101423.66;5085630;28;20034;-69
2023/06/11 05:04:41;;;;;;;21.67;18.70;;;;;;;19.73;75.85;101426.41;5088263;28;20441;-69
2023/06/11 05:07:07;;;;;;;20.77;18.05;;;;;;;19.82;76.23;101431.22;5084782;28;20016;-68
2023/06/11 05:09:32;;;;;;;20.17;17.98;;;;;;;19.90;75.80;101425.50;5075303;28;20468;-68
2023/06/11 05:11:57;;;;;;;19.80;17.48;;;;;;;19.94;74.97;101434.13;5087412;28;20031;-69
2023/06/11 05:14:23;;;;;;;20.60;18.42;;;;;;;19.95;76.09;101427.94;5080773;28;20091;-68
2023/06/11 05:16:50;;;;;;;21.02;18.88;;;;;;;19.97;75.60;101439.28;5086491;28;20445;-69
2023/06/11 05:19:15;;;;;;;22.95;18.10;;;;;;;19.98;75.09;101436.56;5080637;28;20033;-68
2023/06/11 05:21:41;;;;;;;20.73;18.45;;;;;;;20.05;75.70;101443.22;5085203;28;20372;-69
2023/06/11 05:24:07;;;;;;;20.02;18.02;;;;;;;20.09;75.00;101435.97;5082084;28;20059;-69
2023/06/11 05:26:34;;;;;;;19.90;17.92;;;;;;;20.11;74.99;101431.47;5085022;28;20021;-68
2023/06/11 05:29:00;;;;;;;24.10;16.90;;;;;;;20.18;76.05;101432.84;5086531;28;20059;-69
2023/06/11 05:31:25;;;;;;;20.25;18.05;;;;;;;20.25;75.84;101430.69;5084820;28;20040;-69
2023/06/11 05:33:50;;;;;;;19.88;17.83;;;;;;;20.31;74.99;101441.81;5092248;28;20026;-69
2023/06/11 05:36:16;;;;;;;19.35;17.20;;;;;;;20.38;74.40;101444.13;5086152;28;20036;-68
2023/06/11 05:38:42;;;;;;;18.75;16.85;;;;;;;20.42;74.62;101435.91;5087565;28;20099;-68
2023/06/11 05:41:07;;;;;;;19.15;16.98;;;;;;;20.47;75.08;101436.53;5087774;28;20415;-69
2023/06/11 05:43:33;;;;;;;19.42;17.30;;;;;;;20.59;73.84;101448.25;5078715;28;20475;-69
2023/06/11 05:45:58;;;;;;;18.15;15.80;;;;;;;20.65;72.63;101437.31;5087619;28;20024;-69
2023/06/11 05:48:26;;;;;;;16.35;14.77;;;;;;;20.69;70.87;101432.69;5086968;28;20021;-68
2023/06/11 05:50:52;;;;;;;15.38;13.77;;;;;;;20.79;73.06;101429.44;5086410;28;20036;-69
2023/06/11 05:53:17;;;;;;;16.23;14.10;;;;;;;20.91;71.40;101429.69;5088119;28;20027;-68
2023/06/11 05:55:42;;;;;;;15.68;13.15;;;;;;;20.97;70.67;101429.34;5086118;28;20028;-69
2023/06/11 05:58:07;;;;;;;15.65;12.63;;;;;;;21.03;69.99;101426.34;5089887;28;20419;-69
2023/06/11 06:00:33;;;;;;;15.27;13.32;;;;;;;21.09;69.01;101425.97;5084298;28;20383;-69
2023/06/11 06:02:58;;;;;;;14.20;12.45;;;;;;;21.19;69.02;101432.44;5091747;28;20025;-68
2023/06/11 06:05:23;;;;;;;13.10;11.80;;;;;;;21.27;68.06;101435.50;5083201;28;20494;-69
2023/06/11 06:07:49;;;;;;;13.40;12.02;;;;;;;21.33;67.39;101433.44;5080784;28;20033;-69
2023/06/11 06:10:14;;;;;;;15.35;12.13;;;;;;;21.39;67.65;101436.59;5087235;28;20043;-69
2023/06/11 06:12:39;;;;;;;15.80;12.50;;;;;;;21.45;66.66;101433.59;5084830;28;20115;-69
2023/06/11 06:15:06;;;;;;;13.27;11.93;;;;;;;21.56;67.12;101438.25;5086553;28;20032;-68
2023/06/11 06:17:32;;;;;;;14.02;12.63;;;;;;;21.66;67.41;101436.75;5087728;28;20029;-69
2023/06/11 06:19:57;;;;;;;12.65;11.52;;;;;;;21.75;68.25;101445.94;5083467;28;20036;-69
2023/06/11 06:22:22;;;;;;;14.45;11.52;;;;;;;21.77;67.17;101438.72;5090216;28;20051;-69
2023/06/11 06:24:47;;;;;;;13.07;11.60;;;;;;;21.87;64.84;101439.03;5083178;28;20024;-69
2023/06/11 06:27:13;;;;;;;12.55;11.20;;;;;;;21.95;67.18;101445.56;5082724;28;20388;-69
2023/06/11 06:29:41;;;;;;;15.48;11.23;;;;;;;22.04;64.47;101438.84;5083374;28;20478;-70
2023/06/11 06:32:07;;;;;;;13.70;11.32;;;;;;;22.14;64.99;101442.63;5090369;28;20034;-69
2023/06/11 06:34:32;;;;;;;15.13;11.50;;;;;;;22.23;65.81;101437.72;5083166;28;20032;-69
2023/06/11 06:36:58;;;;;;;12.07;10.88;;;;;;;22.30;64.63;101447.88;5089900;28;20112;-69
2023/06/11 06:39:23;;;;;;;11.88;10.70;;;;;;;22.36;63.82;101444.81;5083518;28;20024;-69
2023/06/11 06:41:49;;;;;;;12.02;10.82;;;;;;;22.41;63.62;101448.03;5083572;28;20107;-69
2023/06/11 06:44:14;;;;;;;11.55;10.52;;;;;;;22.51;64.34;101450.97;5085568;28;20074;-69
2023/06/11 06:46:40;;;;;;;12.45;11.18;;;;;;;22.61;63.26;101446.75;5085168;28;20020;-69
2023/06/11 06:49:05;;;;;;;14.75;11.88;;;;;;;22.73;63.76;101454.91;5086282;28;20522;-69
2023/06/11 06:51:32;;;;;;;12.18;10.35;;;;;;;22.83;63.63;101454.19;5086005;28;20097;-69
2023/06/11 06:53:58;;;;;;;12.20;10.30;;;;;;;22.89;63.44;101445.81;5085458;28;20126;-68
2023/06/11 06:56:23;;;;;;;11.63;10.52;;;;;;;22.94;62.47;101445.53;5086487;28;20024;-69
2023/06/11 06:58:49;;;;;;;13.00;10.80;;;;;;;22.97;61.76;101442.69;5085405;28;20032;-69
2023/06/11 07:01:14;;;;;;;13.20;11.32;;;;;;;23.01;60.15;101438.84;5085244;28;20025;-69
2023/06/11 07:03:41;;;;;;;14.48;11.52;;;;;;;23.08;60.44;101445.47;5082854;28;20086;-69
2023/06/11 07:06:06;;;;;;;12.82;10.73;;;;;;;23.17;60.92;101446.66;5085855;28;20024;-69
2023/06/11 07:08:32;;;;;;;12.13;10.80;;;;;;;23.20;60.21;101440.31;5080807;28;20024;-68
2023/06/11 07:10:57;;;;;;;15.77;10.63;;;;;;;23.29;59.72;101445.00;5084300;28;20050;-69
2023/06/11 07:13:23;;;;;;;14.63;11.30;;;;;;;23.32;59.02;101447.47;5086087;28;20035;-69
2023/06/11 07:15:48;;;;;;;14.48;10.38;;;;;;;23.37;60.98;101450.66;5083596;28;20464;-69
2023/06/11 07:18:15;;;;;;;13.13;10.32;;;;;;;23.41;60.74;101449.47;5085806;28;20024;-69
2023/06/11 07:20:40;;;;;;;12.30;10.85;;;;;;;23.52;60.40;101441.63;5085288;28;20372;-69
2023/06/11 07:23:05;;;;;;;11.90;10.80;;;;;;;23.62;59.05;101449.00;5083583;28;20021;-69
2023/06/11 07:25:31;;;;;;;11.77;10.13;;;;;;;23.68;59.19;101451.25;5085617;28;20031;-69
2023/06/11 07:28:01;;;;;;;10.77;9.75;;;;;;;23.74;58.50;101453.47;5084180;28;20900;-69
2023/06/11 07:30:30;;;;;;;11.13;10.02;;;;;;;23.79;57.91;101443.38;5071400;28;20024;-69
2023/06/11 07:32:56;;;;;;;10.77;9.68;;;;;;;23.94;57.66;101452.13;5085506;28;20032;-69
2023/06/11 07:35:22;;;;;;;11.38;10.25;;;;;;;23.99;57.07;101448.16;5083845;28;20036;-69
2023/06/11 07:37:48;;;;;;;10.82;9.82;;;;;;;24.12;57.87;101452.63;5087189;28;20487;-68
2023/06/11 07:40:15;;;;;;;11.27;10.23;;;;;;;24.23;56.36;101448.25;5082752;28;20036;-68
2023/06/11 07:42:40;;;;;;;10.85;9.85;;;;;;;24.33;56.25;101447.56;5082923;28;20103;-69
2023/06/11 07:45:06;;;;;;;12.85;9.95;;;;;;;24.40;56.49;101446.19;5083021;28;20070;-69
2023/06/11 07:47:32;;;;;;;11.25;10.20;;;;;;;24.40;55.81;101446.19;5090241;28;20032;-69
2023/06/11 07:49:57;;;;;;;16.83;10.15;;;;;;;24.43;56.86;101446.00;5080306;28;20033;-69
2023/06/11 07:52:22;;;;;;;10.90;9.80;;;;;;;24.48;54.61;101444.69;5081967;28;20063;-69
2023/06/11 07:54:48;;;;;;;11.93;10.73;;;;;;;24.63;55.27;101456.03;5086784;28;20444;-69
2023/06/11 07:57:13;;;;;;;12.35;9.98;;;;;;;24.79;55.75;101449.56;5080856;28;20025;-69
2023/06/11 07:59:40;;;;;;;11.73;10.52;;;;;;;24.85;54.25;101446.44;5087101;28;20032;-69
2023/06/11 08:02:07;;;;;;;11.75;10.20;;;;;;;24.98;54.92;101450.78;5081755;28;20037;-69
2023/06/11 08:04:32;;;;;;;11.30;10.07;;;;;;;24.99;53.45;101454.28;5087066;28;20024;-69
2023/06/11 08:06:58;;;;;;;11.90;10.18;;;;;;;25.06;55.36;101438.69;5081517;28;21789;-69
2023/06/11 08:09:23;;;;;;;11.02;9.88;;;;;;;25.15;54.32;101448.69;5077522;28;20024;-69
2023/06/11 08:11:48;;;;;;;13.90;10.52;;;;;;;25.21;54.61;101449.09;5087706;28;20063;-69
2023/06/11 08:14:13;;;;;;;13.35;10.82;;;;;;;25.28;52.96;101454.81;5081695;28;20024;-69
2023/06/11 08:16:39;;;;;;;10.77;9.65;;;;;;;25.38;53.67;101446.97;5087416;28;20032;-69
2023/06/11 08:19:04;;;;;;;11.57;9.77;;;;;;;25.44;54.96;101447.34;5081419;28;20463;-69
2023/06/11 08:21:29;;;;;;;12.05;10.23;;;;;;;25.58;53.99;101445.41;5086130;28;20027;-69
2023/06/11 08:23:55;;;;;;;11.13;10.07;;;;;;;25.66;52.94;101448.34;5083792;28;20033;-69
2023/06/11 08:26:20;;;;;;;10.88;9.77;;;;;;;25.70;52.61;101444.44;5083125;28;20468;-69
2023/06/11 08:28:46;;;;;;;10.85;9.75;;;;;;;25.90;52.39;101438.44;5083961;28;20051;-69
2023/06/11 08:31:12;;;;;;;10.40;9.30;;;;;;;26.00;52.71;101435.06;5083375;28;20081;-69
2023/06/11 08:33:38;;;;;;;11.15;9.95;;;;;;;26.08;51.80;101425.44;5083500;28;20031;-69
2023/06/11 08:36:03;;;;;;;10.90;9.82;;;;;;;26.12;51.80;101434.06;5084085;28;20028;-69
2023/06/11 08:38:29;;;;;;;11.05;9.90;;;;;;;26.20;50.99;101436.97;5083927;28;20471;-69
2023/06/11 08:40:55;;;;;;;11.30;9.60;;;;;;;26.20;50.68;101430.78;5083095;28;20123;-69
2023/06/11 08:43:20;;;;;;;10.38;9.30;;;;;;;26.32;50.27;101432.44;5080361;28;20099;-69
2023/06/11 08:45:46;;;;;;;10.48;9.48;;;;;;;26.30;49.74;101427.25;5082871;28;20586;-69
2023/06/11 08:48:13;;;;;;;12.52;9.57;;;;;;;26.31;49.56;101428.94;5084838;28;20138;-69
2023/06/11 08:50:38;;;;;;;11.13;9.32;;;;;;;26.39;49.64;101423.84;5083122;28;20025;-69
2023/06/11 08:53:06;;;;;;;10.68;9.38;;;;;;;26.45;50.85;101418.94;5083003;28;20024;-69
2023/06/11 08:55:31;;;;;;;10.23;9.23;;;;;;;26.60;50.65;101423.09;5081937;28;20029;-69
2023/06/11 08:57:57;;;;;;;10.95;9.68;;;;;;;26.68;49.80;101412.59;5083953;28;20147;-69
2023/06/11 09:00:23;;;;;;;10.90;9.80;;;;;;;26.79;49.50;101420.59;5081037;28;20060;-69
2023/06/11 09:02:49;;;;;;;12.82;9.38;;;;;;;26.84;47.80;101420.19;5082166;28;20062;-69
2023/06/11 09:05:14;;;;;;;11.57;8.95;;;;;;;26.91;47.58;101416.03;5083958;28;20020;-68
2023/06/11 09:07:52;;;;;;;9.88;8.68;;;;;;;27.05;48.25;101414.91;5075679;28;20032;-69
2023/06/11 09:10:18;;;;;;;10.15;9.07;;;;;;;27.25;47.49;101419.44;5083963;28;20032;-69
2023/06/11 09:12:44;;;;;;;9.38;8.48;;;;;;;27.39;47.83;101420.09;5081918;28;20036;-69
2023/06/11 09:15:12;;;;;;;12.70;8.65;;;;;;;27.38;46.39;101405.84;5083275;28;20023;-79
2023/06/11 09:17:39;;;;;;;8.88;8.05;;;;;;;27.61;46.33;101422.63;5083745;28;20474;-79
2023/06/11 09:20:07;;;;;;;9.50;8.50;;;;;;;27.59;46.98;101410.31;5082799;28;20430;-79
2023/06/11 09:22:34;;;;;;;10.10;8.75;;;;;;;27.69;46.44;101417.44;5084654;28;20060;-70
2023/06/11 09:25:16;;;;;;;9.25;8.23;;;;;;;27.74;46.56;101415.22;5083045;28;20028;-69
2023/06/11 09:27:41;;;;;;;9.02;8.13;;;;;;;27.77;46.48;101417.66;5084601;28;20373;-70
2023/06/11 09:30:12;;;;;;;9.50;8.60;;;;;;;27.88;46.93;101413.19;5080741;28;20023;-70
2023/06/11 09:32:41;;;;;;;8.98;8.07;;;;;;;28.11;45.92;101405.78;5086206;28;20499;-70
2023/06/11 09:35:11;;;;;;;11.82;7.78;;;;;;;28.21;45.34;101412.88;5077052;28;20874;-70
2023/06/11 09:37:40;;;;;;;9.25;8.45;;;;;;;28.24;46.65;101411.75;5087769;28;20032;-70
2023/06/11 09:40:08;;;;;;;8.93;8.20;;;;;;;28.36;45.59;101412.50;5080348;28;20379;-70
2023/06/11 09:42:37;;;;;;;9.10;8.30;;;;;;;28.39;46.22;101409.53;5082045;28;20064;-69
2023/06/11 09:45:03;;;;;;;9.35;8.32;;;;;;;28.43;44.75;101408.31;5082050;28;20039;-70
2023/06/11 09:47:30;;;;;;;9.57;8.52;;;;;;;28.49;44.95;101418.47;5088508;28;20383;-70
2023/06/11 09:49:57;;;;;;;8.68;7.88;;;;;;;28.47;43.74;101417.75;5079128;28;20037;-70
2023/06/11 09:52:23;;;;;;;9.68;8.63;;;;;;;28.52;44.30;101414.69;5080078;28;20050;-70
2023/06/11 09:54:49;;;;;;;10.02;8.23;;;;;;;28.60;44.64;101417.50;5085234;28;20025;-70
2023/06/11 09:57:16;;;;;;;10.05;8.60;;;;;;;28.69;44.28;101419.34;5079733;28;20029;-70
2023/06/11 09:59:41;;;;;;;9.85;7.40;;;;;;;28.73;41.68;101415.41;5085976;28;20073;-70
2023/06/11 10:02:08;;;;;;;10.63;8.40;;;;;;;28.75;43.16;101415.28;5080441;28;20415;-70
2023/06/11 10:04:33;;;;;;;9.75;7.95;;;;;;;28.93;43.43;101410.88;5085444;28;20024;-70
2023/06/11 10:07:00;;;;;;;7.97;7.27;;;;;;;28.97;41.21;101416.81;5079458;28;20380;-70
2023/06/11 10:09:29;;;;;;;8.57;7.47;;;;;;;28.98;40.97;101427.41;5076112;28;20354;-70
2023/06/11 10:11:55;;;;;;;7.90;7.05;;;;;;;28.99;38.77;101415.69;5086364;28;20062;-70
2023/06/11 10:14:22;;;;;;;8.50;7.60;;;;;;;29.14;40.83;101413.44;5083456;28;20032;-70
2023/06/11 10:16:51;;;;;;;7.43;6.72;;;;;;;29.22;39.96;101413.56;5090998;28;20028;-70
2023/06/11 10:19:18;;;;;;;7.80;7.10;;;;;;;29.26;39.71;101419.50;5082685;28;20021;-70
2023/06/11 10:21:50;;;;;;;7.97;7.18;;;;;;;29.35;39.27;101424.84;5089957;28;20031;-70
2023/06/11 10:24:26;;;;;;;7.93;7.13;;;;;;;29.38;39.14;101418.34;5077806;28;20513;-70
2023/06/11 10:27:12;;;;;;;8.55;7.60;;;;;;;29.50;40.82;101417.19;5090682;28;20078;-70
2023/06/11 10:29:47;;;;;;;8.25;7.43;;;;;;;29.57;39.67;101410.25;5080439;28;20388;-69
2023/06/11 10:32:17;;;;;;;11.60;7.13;;;;;;;29.66;39.01;101418.44;5090612;28;20128;-69
2023/06/11 10:34:44;;;;;;;7.50;6.75;;;;;;;29.61;39.51;101414.34;5082960;28;20388;-70
2023/06/11 10:37:10;;;;;;;9.02;7.32;;;;;;;29.54;38.45;101407.00;5091337;28;20455;-70
2023/06/11 10:39:35;;;;;;;8.18;7.00;;;;;;;29.56;39.68;101411.25;5082257;28;20036;-70
2023/06/11 10:42:02;;;;;;;9.30;7.20;;;;;;;29.65;39.06;101398.78;5085936;28;20102;-69
2023/06/11 10:44:31;;;;;;;12.80;7.57;;;;;;;29.63;38.54;101400.78;5087593;28;20031;-70
2023/06/11 10:47:00;;;;;;;8.30;7.50;;;;;;;29.62;37.58;101388.31;5087861;28;20039;-70
2023/06/11 10:49:26;;;;;;;8.60;7.63;;;;;;;29.76;37.64;101395.09;5085436;28;20020;-70
2023/06/11 10:51:52;;;;;;;8.32;7.55;;;;;;;29.87;39.04;101405.63;5086792;28;20547;-69
2023/06/11 10:54:25;;;;;;;11.65;7.80;;;;;;;30.04;38.47;101390.56;5085343;28;20030;-70
2023/06/11 10:56:51;;;;;;;10.07;7.97;;;;;;;30.21;38.33;101388.94;5080045;28;20028;-70
2023/06/11 10:59:18;;;;;;;8.30;7.50;;;;;;;30.25;38.25;101401.09;5086668;28;20024;-70
2023/06/11 11:01:43;;;;;;;8.05;6.95;;;;;;;30.38;37.64;101396.19;5083713;28;20107;-70
2023/06/11 11:04:08;;;;;;;7.80;7.00;;;;;;;30.48;36.76;101405.03;5085457;28;20111;-70
2023/06/11 11:06:36;;;;;;;7.85;7.10;;;;;;;30.62;37.15;101405.50;5085610;28;20024;-70
2023/06/11 11:09:02;;;;;;;9.35;6.50;;;;;;;30.83;36.29;101399.84;5078232;28;20074;-70